Time;durP1;ratioP1;P1;durP2;ratioP2;P2;SDS_P1;SDS_P2;PMS_P1;PMS_P2;Temp;Humidity;BMP_temperature;BMP_pressure;BME280_temperature;BME280_humidity;BME280_pressure;Samples;Min_cycle;Max_cycle;Signal;HPM_P1;HPM_P2
2023/01/31 00:00:51;;;;;;;10.73;3.20;;;;;;;;;;5053303;28;20177;-73
2023/01/31 00:03:16;;;;;;;14.27;2.77;;;;;;;;;;5064003;28;20177;-74
2023/01/31 00:05:41;;;;;;;6.30;2.53;;;;;;;;;;5061524;28;20199;-74
2023/01/31 00:08:06;;;;;;;10.47;3.13;;;;;;;;;;5044229;28;20343;-75
2023/01/31 00:10:31;;;;;;;12.13;2.20;;;;;;;;;;5061906;28;20265;-75
2023/01/31 00:12:56;;;;;;;7.50;2.03;;;;;;;;;;5056579;28;20185;-75
2023/01/31 00:15:22;;;;;;;13.10;3.03;;;;;;;;;;5060014;28;20200;-74
2023/01/31 00:17:47;;;;;;;11.03;2.10;;;;;;;;;;5061249;28;20560;-74
2023/01/31 00:20:12;;;;;;;16.37;3.83;;;;;;;;;;5061725;28;20255;-74
2023/01/31 00:22:37;;;;;;;8.83;2.20;;;;;;;;;;5059820;28;20181;-74
2023/01/31 00:25:03;;;;;;;7.37;2.73;;;;;;;;;;5058492;28;20177;-75
2023/01/31 00:27:28;;;;;;;13.47;3.83;;;;;;;;;;5072085;28;20272;-74
2023/01/31 00:29:54;;;;;;;9.03;2.47;;;;;;;;;;5059302;28;20634;-74
2023/01/31 00:32:19;;;;;;;11.30;2.53;;;;;;;;;;5074002;28;20638;-74
2023/01/31 00:34:44;;;;;;;18.30;3.03;;;;;;;;;;5068045;28;20657;-73
2023/01/31 00:37:09;;;;;;;17.03;2.33;;;;;;;;;;5071893;28;20209;-74
2023/01/31 00:39:34;;;;;;;15.40;3.27;;;;;;;;;;5077124;28;20171;-73
2023/01/31 00:42:00;;;;;;;12.87;2.83;;;;;;;;;;5081382;28;20332;-75
2023/01/31 00:44:25;;;;;;;15.93;3.30;;;;;;;;;;5070533;28;20258;-73
2023/01/31 00:46:50;;;;;;;14.77;3.07;;;;;;;;;;5071753;28;20671;-74
2023/01/31 00:49:15;;;;;;;11.77;3.33;;;;;;;;;;5065038;28;20188;-74
2023/01/31 00:51:40;;;;;;;15.93;3.47;;;;;;;;;;5077708;28;20176;-73
2023/01/31 00:54:06;;;;;;;12.57;3.00;;;;;;;;;;5074173;28;20181;-73
2023/01/31 00:56:31;;;;;;;12.70;3.43;;;;;;;;;;5071336;28;20556;-73
2023/01/31 00:58:56;;;;;;;10.50;2.50;;;;;;;;;;5074850;28;20177;-73
2023/01/31 01:01:26;;;;;;;17.77;3.10;;;;;;;;;;5047567;28;20181;-73
2023/01/31 01:03:51;;;;;;;7.40;2.40;;;;;;;;;;5074618;28;20674;-73
2023/01/31 01:06:17;;;;;;;8.37;3.53;;;;;;;;;;5068739;28;20250;-73
2023/01/31 01:08:42;;;;;;;10.60;3.57;;;;;;;;;;5067114;28;20238;-73
2023/01/31 01:11:09;;;;;;;8.97;2.57;;;;;;;;;;5045989;28;20602;-73
2023/01/31 01:13:34;;;;;;;11.23;3.17;;;;;;;;;;5068770;28;20185;-74
2023/01/31 01:16:06;;;;;;;16.30;2.97;;;;;;;;;;5054965;28;21780;-73
2023/01/31 01:18:34;;;;;;;9.07;1.90;;;;;;;;;;5060005;28;20223;-75
2023/01/31 01:21:03;;;;;;;12.43;2.40;;;;;;;;;;5066808;28;20587;-73
2023/01/31 01:23:29;;;;;;;7.13;2.07;;;;;;;;;;5060099;28;20591;-73
2023/01/31 01:25:54;;;;;;;10.23;1.80;;;;;;;;;;5060801;28;20201;-73
2023/01/31 01:28:19;;;;;;;11.00;3.30;;;;;;;;;;5059714;28;20201;-73
2023/01/31 01:30:44;;;;;;;15.87;2.73;;;;;;;;;;5061232;28;20180;-73
2023/01/31 01:33:09;;;;;;;11.77;3.20;;;;;;;;;;5061952;28;20176;-73
2023/01/31 01:35:35;;;;;;;11.57;2.47;;;;;;;;;;5065212;28;20209;-73
2023/01/31 01:38:00;;;;;;;12.50;3.00;;;;;;;;;;5066503;28;20176;-73
2023/01/31 01:40:33;;;;;;;15.80;3.13;;;;;;;;;;5060962;28;20664;-76
2023/01/31 01:42:58;;;;;;;10.37;2.43;;;;;;;;;;5042009;28;20275;-73
2023/01/31 01:45:23;;;;;;;9.97;2.80;;;;;;;;;;5067538;28;20668;-73
2023/01/31 01:47:51;;;;;;;13.33;2.73;;;;;;;;;;5042513;28;20185;-73
2023/01/31 01:50:16;;;;;;;15.07;3.13;;;;;;;;;;5071927;28;20188;-74
2023/01/31 01:52:45;;;;;;;8.70;2.30;;;;;;;;;;5075433;28;20184;-73
2023/01/31 01:55:13;;;;;;;17.40;2.93;;;;;;;;;;5078267;28;20211;-73
2023/01/31 01:57:40;;;;;;;10.77;4.40;;;;;;;;;;5071502;28;20382;-73
2023/01/31 02:00:22;;;;;;;10.83;2.63;;;;;;;;;;5074153;28;20184;-73
2023/01/31 02:02:49;;;;;;;9.27;2.60;;;;;;;;;;5063117;28;20688;-73
2023/01/31 02:05:16;;;;;;;14.13;2.60;;;;;;;;;;5057456;28;20189;-73
2023/01/31 02:07:41;;;;;;;9.27;2.87;;;;;;;;;;5048481;28;20223;-75
2023/01/31 02:10:13;;;;;;;19.13;2.63;;;;;;;;;;5073103;28;20750;-73
2023/01/31 02:12:38;;;;;;;18.43;2.87;;;;;;;;;;5077058;28;20301;-73
2023/01/31 02:15:04;;;;;;;11.83;3.07;;;;;;;;;;5050210;28;20686;-74
2023/01/31 02:17:29;;;;;;;14.13;3.53;;;;;;;;;;5057783;28;20205;-75
2023/01/31 02:20:15;;;;;;;17.03;3.33;;;;;;;;;;5060064;28;20569;-73
2023/01/31 02:22:58;;;;;;;19.23;3.67;;;;;;;;;;5010545;28;20280;-73
2023/01/31 02:25:40;;;;;;;9.20;2.70;;;;;;;;;;5047433;28;20654;-73
2023/01/31 02:28:17;;;;;;;13.23;3.17;;;;;;;;;;5065967;28;20241;-74
2023/01/31 02:30:45;;;;;;;11.73;3.93;;;;;;;;;;5063391;28;20555;-75
2023/01/31 02:33:11;;;;;;;15.63;2.90;;;;;;;;;;5063229;28;20169;-73
2023/01/31 02:35:48;;;;;;;17.37;3.37;;;;;;;;;;5045979;28;20213;-73
2023/01/31 02:38:22;;;;;;;13.83;3.33;;;;;;;;;;5063039;28;20179;-74
2023/01/31 02:41:03;;;;;;;17.20;3.33;;;;;;;;;;5062734;28;20246;-73
2023/01/31 02:43:28;;;;;;;18.70;4.07;;;;;;;;;;5040076;28;20254;-73
2023/01/31 02:46:19;;;;;;;17.07;5.20;;;;;;;;;;5046388;28;20678;-72
2023/01/31 02:48:52;;;;;;;13.73;3.47;;;;;;;;;;5062474;28;20275;-72
2023/01/31 02:51:23;;;;;;;14.07;5.63;;;;;;;;;;5064873;28;20670;-72
2023/01/31 02:54:07;;;;;;;14.77;3.97;;;;;;;;;;5062951;28;20562;-73
2023/01/31 02:56:34;;;;;;;10.57;4.27;;;;;;;;;;5067104;28;20744;-73
2023/01/31 02:59:21;;;;;;;18.33;3.83;;;;;;;;;;5075803;28;22191;-72
2023/01/31 03:01:53;;;;;;;16.47;4.50;;;;;;;;;;5074830;28;20234;-74
2023/01/31 03:04:19;;;;;;;14.87;3.77;;;;;;;;;;5056439;28;20238;-75
2023/01/31 03:06:58;;;;;;;16.13;4.80;;;;;;;;;;5081209;28;20764;-74
2023/01/31 03:09:35;;;;;;;14.13;4.50;;;;;;;;;;5080835;28;20176;-73
2023/01/31 03:12:13;;;;;;;19.87;4.53;;;;;;;;;;5079612;28;20603;-73
2023/01/31 03:14:44;;;;;;;9.53;4.30;;;;;;;;;;5048300;28;20185;-73
2023/01/31 03:17:32;;;;;;;19.43;4.73;;;;;;;;;;5062825;28;20217;-73
2023/01/31 03:20:00;;;;;;;17.73;5.13;;;;;;;;;;5061246;28;20185;-76
2023/01/31 03:22:31;;;;;;;16.77;4.73;;;;;;;;;;5067301;28;20575;-72
2023/01/31 03:24:58;;;;;;;14.63;4.10;;;;;;;;;;5064285;28;20259;-75
2023/01/31 03:27:23;;;;;;;21.63;4.63;;;;;;;;;;5045611;28;20189;-73
2023/01/31 03:29:49;;;;;;;18.30;4.70;;;;;;;;;;5060190;28;20173;-74
2023/01/31 03:32:22;;;;;;;16.77;5.63;;;;;;;;;;5063391;28;20177;-74
2023/01/31 03:34:48;;;;;;;19.83;4.93;;;;;;;;;;5061399;28;20172;-74
2023/01/31 03:37:13;;;;;;;22.23;5.77;;;;;;;;;;5062096;28;20682;-73
2023/01/31 03:39:38;;;;;;;24.37;6.10;;;;;;;;;;5062628;28;20177;-73
2023/01/31 03:42:24;;;;;;;17.17;5.57;;;;;;;;;;5064797;28;20183;-73
2023/01/31 03:44:54;;;;;;;15.63;5.30;;;;;;;;;;5053952;28;20195;-73
2023/01/31 03:47:37;;;;;;;22.13;6.23;;;;;;;;;;5067745;28;20259;-72
2023/01/31 03:50:05;;;;;;;22.43;6.27;;;;;;;;;;5067268;28;20181;-73
2023/01/31 03:52:33;;;;;;;22.83;7.23;;;;;;;;;;5079526;28;20196;-73
2023/01/31 03:55:19;;;;;;;23.67;5.60;;;;;;;;;;5069881;28;20173;-73
2023/01/31 03:57:47;;;;;;;28.97;8.63;;;;;;;;;;5066591;28;20177;-73
2023/01/31 04:00:13;;;;;;;22.30;6.30;;;;;;;;;;5074781;28;20181;-74
2023/01/31 04:02:40;;;;;;;19.63;6.10;;;;;;;;;;5077065;28;20170;-74
2023/01/31 04:05:05;;;;;;;16.40;5.83;;;;;;;;;;5070345;28;20176;-73
2023/01/31 04:07:30;;;;;;;17.70;6.70;;;;;;;;;;5057672;28;20204;-73
2023/01/31 04:09:56;;;;;;;17.80;5.87;;;;;;;;;;5071904;28;20298;-73
2023/01/31 04:12:21;;;;;;;29.23;6.33;;;;;;;;;;5073168;28;20173;-73
2023/01/31 04:14:46;;;;;;;13.73;6.43;;;;;;;;;;5076208;28;20191;-73
2023/01/31 04:17:12;;;;;;;23.87;5.73;;;;;;;;;;5072430;28;20205;-74
2023/01/31 04:19:37;;;;;;;19.87;6.27;;;;;;;;;;5079138;28;20748;-73
2023/01/31 04:22:02;;;;;;;27.50;6.47;;;;;;;;;;5058821;28;20180;-74
2023/01/31 04:24:27;;;;;;;19.37;5.63;;;;;;;;;;5072931;28;20177;-73
2023/01/31 04:26:52;;;;;;;19.90;6.77;;;;;;;;;;5076808;28;20262;-73
2023/01/31 04:29:18;;;;;;;24.93;7.17;;;;;;;;;;5079566;28;20173;-73
2023/01/31 04:31:43;;;;;;;18.53;6.77;;;;;;;;;;5076695;28;20181;-73
2023/01/31 04:34:08;;;;;;;21.37;6.90;;;;;;;;;;5080090;28;20204;-74
2023/01/31 04:36:33;;;;;;;18.40;5.97;;;;;;;;;;5082999;28;20231;-73
2023/01/31 04:39:02;;;;;;;22.23;7.87;;;;;;;;;;5057359;28;20173;-74
2023/01/31 04:41:27;;;;;;;24.57;6.33;;;;;;;;;;5080598;28;20606;-74
2023/01/31 04:43:52;;;;;;;27.63;6.07;;;;;;;;;;5079569;28;20169;-73
2023/01/31 04:46:17;;;;;;;24.83;7.20;;;;;;;;;;5078073;28;20196;-75
2023/01/31 04:48:43;;;;;;;20.13;6.27;;;;;;;;;;5070102;28;20180;-74
2023/01/31 04:51:08;;;;;;;26.43;10.40;;;;;;;;;;5062476;28;20178;-73
2023/01/31 04:53:33;;;;;;;21.77;6.03;;;;;;;;;;5072058;28;20184;-76
2023/01/31 04:55:59;;;;;;;21.10;7.70;;;;;;;;;;5057137;28;20209;-73
2023/01/31 04:58:24;;;;;;;17.63;6.33;;;;;;;;;;5074146;28;20565;-74
2023/01/31 05:00:49;;;;;;;24.50;7.10;;;;;;;;;;5084124;28;20303;-74
2023/01/31 05:03:14;;;;;;;27.43;6.27;;;;;;;;;;5074475;28;20184;-74
2023/01/31 05:05:39;;;;;;;20.30;6.60;;;;;;;;;;5056631;28;20256;-73
2023/01/31 05:08:05;;;;;;;21.67;6.40;;;;;;;;;;5083113;22;20256;-73
2023/01/31 05:10:31;;;;;;;23.33;7.13;;;;;;;;;;5057770;28;20183;-73
2023/01/31 05:12:56;;;;;;;20.23;6.57;;;;;;;;;;5076079;28;20311;-73
2023/01/31 05:15:21;;;;;;;20.77;6.37;;;;;;;;;;5051402;28;20683;-74
2023/01/31 05:18:01;;;;;;;20.17;6.50;;;;;;;;;;5066678;28;20189;-73
2023/01/31 05:20:31;;;;;;;23.27;6.67;;;;;;;;;;5066999;28;20612;-72
2023/01/31 05:22:57;;;;;;;16.03;5.83;;;;;;;;;;5060525;28;20689;-73
2023/01/31 05:25:22;;;;;;;19.57;6.77;;;;;;;;;;5046792;28;20209;-73
2023/01/31 05:27:47;;;;;;;25.83;6.60;;;;;;;;;;5066962;28;20232;-73
2023/01/31 05:30:12;;;;;;;15.40;6.23;;;;;;;;;;5066222;28;20181;-73
2023/01/31 05:32:38;;;;;;;19.27;5.63;;;;;;;;;;5066301;28;20601;-73
2023/01/31 05:35:04;;;;;;;27.27;6.77;;;;;;;;;;5049244;28;20185;-73
2023/01/31 05:37:30;;;;;;;16.80;6.47;;;;;;;;;;5054031;28;20288;-73
2023/01/31 05:39:55;;;;;;;18.93;5.63;;;;;;;;;;5067809;28;20177;-73
2023/01/31 05:42:20;;;;;;;19.00;4.93;;;;;;;;;;5070159;28;20180;-73
2023/01/31 05:44:45;;;;;;;15.87;5.50;;;;;;;;;;5065201;28;20545;-73
2023/01/31 05:47:10;;;;;;;18.97;5.10;;;;;;;;;;5063640;28;20205;-73
2023/01/31 05:49:36;;;;;;;22.37;6.70;;;;;;;;;;5056674;28;20227;-73
2023/01/31 05:52:01;;;;;;;25.70;7.07;;;;;;;;;;5063298;28;20550;-73
2023/01/31 05:54:26;;;;;;;22.67;6.03;;;;;;;;;;5057996;28;20178;-73
2023/01/31 05:56:51;;;;;;;29.90;5.50;;;;;;;;;;5063042;28;20239;-73
2023/01/31 05:59:17;;;;;;;24.87;6.07;;;;;;;;;;5056867;28;20223;-73
2023/01/31 06:01:42;;;;;;;21.17;5.43;;;;;;;;;;5055980;28;20173;-73
2023/01/31 06:04:08;;;;;;;17.27;6.27;;;;;;;;;;5062232;28;21130;-74
2023/01/31 06:06:33;;;;;;;20.57;5.10;;;;;;;;;;5052883;28;20305;-74
2023/01/31 06:08:58;;;;;;;19.40;4.70;;;;;;;;;;5065701;28;20276;-74
2023/01/31 06:11:24;;;;;;;16.23;5.23;;;;;;;;;;5057222;28;20185;-74
2023/01/31 06:13:49;;;;;;;15.63;4.90;;;;;;;;;;5066935;28;20173;-74
2023/01/31 06:16:15;;;;;;;16.70;5.17;;;;;;;;;;5055291;28;20262;-74
2023/01/31 06:18:40;;;;;;;16.97;5.40;;;;;;;;;;5059854;28;20173;-74
2023/01/31 06:21:05;;;;;;;20.30;5.00;;;;;;;;;;5068186;28;20650;-74
2023/01/31 06:23:30;;;;;;;17.30;4.87;;;;;;;;;;5072346;28;20185;-74
2023/01/31 06:25:56;;;;;;;14.57;5.10;;;;;;;;;;5048582;28;20681;-74
2023/01/31 06:28:21;;;;;;;15.73;5.10;;;;;;;;;;5040807;28;20197;-72
2023/01/31 06:30:46;;;;;;;24.93;6.03;;;;;;;;;;5067054;28;20181;-74
2023/01/31 06:33:12;;;;;;;27.33;6.27;;;;;;;;;;5067284;28;20180;-74
2023/01/31 06:35:38;;;;;;;19.73;5.13;;;;;;;;;;5069087;28;20224;-73
2023/01/31 06:38:03;;;;;;;12.93;4.73;;;;;;;;;;5068071;28;20279;-74
2023/01/31 06:40:29;;;;;;;25.57;5.63;;;;;;;;;;5065425;28;21703;-74
2023/01/31 06:42:54;;;;;;;16.30;4.90;;;;;;;;;;5069062;28;20177;-74
2023/01/31 06:45:20;;;;;;;20.77;5.57;;;;;;;;;;5057364;28;20181;-72
2023/01/31 06:47:45;;;;;;;24.13;5.30;;;;;;;;;;5067062;28;20670;-74
2023/01/31 06:50:11;;;;;;;29.03;6.27;;;;;;;;;;5071306;28;20220;-74
2023/01/31 06:52:37;;;;;;;16.43;5.87;;;;;;;;;;5056535;28;20221;-74
2023/01/31 06:55:02;;;;;;;14.60;5.67;;;;;;;;;;5063077;28;20226;-74
2023/01/31 06:57:27;;;;;;;19.30;7.67;;;;;;;;;;5061855;28;20699;-74
2023/01/31 06:59:52;;;;;;;14.47;5.27;;;;;;;;;;5065868;28;20177;-74
2023/01/31 07:02:18;;;;;;;16.00;5.40;;;;;;;;;;5056707;28;20181;-74
2023/01/31 07:04:43;;;;;;;18.03;6.63;;;;;;;;;;5050900;28;20242;-74
2023/01/31 07:07:08;;;;;;;17.53;5.57;;;;;;;;;;5052169;28;20577;-74
2023/01/31 07:09:33;;;;;;;19.40;5.60;;;;;;;;;;5051773;28;20189;-74
2023/01/31 07:11:58;;;;;;;18.27;5.53;;;;;;;;;;5054527;28;20188;-74
2023/01/31 07:14:23;;;;;;;20.20;5.17;;;;;;;;;;5052739;28;20186;-73
2023/01/31 07:16:49;;;;;;;18.33;5.33;;;;;;;;;;5057990;28;20204;-74
2023/01/31 07:19:14;;;;;;;17.70;5.00;;;;;;;;;;5057793;28;20231;-74
2023/01/31 07:21:39;;;;;;;16.17;5.97;;;;;;;;;;5053763;28;20584;-73
2023/01/31 07:24:05;;;;;;;12.27;5.10;;;;;;;;;;5054062;28;20184;-73
2023/01/31 07:26:30;;;;;;;12.00;5.47;;;;;;;;;;5052464;28;20197;-73
2023/01/31 07:28:55;;;;;;;12.97;5.03;;;;;;;;;;5036523;28;20286;-73
2023/01/31 07:31:20;;;;;;;16.77;4.73;;;;;;;;;;5061835;28;20731;-73
2023/01/31 07:33:46;;;;;;;15.67;5.13;;;;;;;;;;5057813;28;20185;-73
2023/01/31 07:36:12;;;;;;;17.47;5.23;;;;;;;;;;5054383;28;20213;-73
2023/01/31 07:38:37;;;;;;;14.60;4.40;;;;;;;;;;5055145;28;20265;-73
2023/01/31 07:41:03;;;;;;;21.13;4.70;;;;;;;;;;5054674;28;20260;-73
2023/01/31 07:43:29;;;;;;;19.87;5.47;;;;;;;;;;5057321;28;20588;-73
2023/01/31 07:45:54;;;;;;;14.10;4.70;;;;;;;;;;5070056;28;20180;-73
2023/01/31 07:48:22;;;;;;;17.17;4.30;;;;;;;;;;5070905;28;20228;-73
2023/01/31 07:50:48;;;;;;;16.53;5.17;;;;;;;;;;5070748;28;20252;-73
2023/01/31 07:53:14;;;;;;;18.97;5.50;;;;;;;;;;5072232;28;20217;-73
2023/01/31 07:55:39;;;;;;;18.37;4.93;;;;;;;;;;5071974;28;20247;-73
2023/01/31 07:58:04;;;;;;;22.83;4.70;;;;;;;;;;5071811;28;20218;-72
2023/01/31 08:03:35;;;;;;;15.10;4.60;;;;;;;;;;5065908;28;20184;-73
2023/01/31 08:06:06;;;;;;;19.10;4.23;;;;;;;;;;5055106;28;20192;-72
2023/01/31 08:08:31;;;;;;;9.83;3.40;;;;;;;;;;5069238;28;20549;-72
2023/01/31 08:10:56;;;;;;;10.83;3.43;;;;;;;;;;5065564;28;20215;-72
2023/01/31 08:13:22;;;;;;;14.53;4.50;;;;;;;;;;5069446;28;20185;-72
2023/01/31 08:15:47;;;;;;;9.20;4.30;;;;;;;;;;5060593;28;20199;-73
2023/01/31 08:18:12;;;;;;;12.47;4.93;;;;;;;;;;5067205;28;20197;-73
2023/01/31 08:20:37;;;;;;;18.37;5.90;;;;;;;;;;5069031;28;20183;-71
2023/01/31 08:23:02;;;;;;;15.10;4.67;;;;;;;;;;5061103;28;20226;-72
2023/01/31 08:25:29;;;;;;;18.10;5.80;;;;;;;;;;5068397;28;20184;-72
2023/01/31 08:27:55;;;;;;;13.03;5.03;;;;;;;;;;5069645;28;20201;-73
2023/01/31 08:30:20;;;;;;;16.33;4.57;;;;;;;;;;5061195;28;20197;-73
2023/01/31 08:32:45;;;;;;;18.33;5.57;;;;;;;;;;5056111;28;20259;-74
2023/01/31 08:35:11;;;;;;;15.10;4.80;;;;;;;;;;5070544;28;20833;-72
2023/01/31 08:37:36;;;;;;;18.93;6.07;;;;;;;;;;5065983;28;20287;-72
2023/01/31 08:40:01;;;;;;;16.17;4.67;;;;;;;;;;5065940;28;20166;-72
2023/01/31 08:42:26;;;;;;;11.20;4.17;;;;;;;;;;5071225;28;20181;-72
2023/01/31 08:44:51;;;;;;;14.90;3.87;;;;;;;;;;5068004;28;20284;-72
2023/01/31 08:47:17;;;;;;;16.37;5.80;;;;;;;;;;5064277;28;20543;-75
2023/01/31 08:49:42;;;;;;;22.30;4.70;;;;;;;;;;5067016;28;20187;-74
2023/01/31 08:52:07;;;;;;;18.60;4.33;;;;;;;;;;5071156;28;20197;-73
2023/01/31 08:54:32;;;;;;;16.00;4.93;;;;;;;;;;5069834;28;20188;-73
2023/01/31 08:56:58;;;;;;;18.53;4.73;;;;;;;;;;5068394;28;21034;-73
2023/01/31 08:59:23;;;;;;;17.00;4.73;;;;;;;;;;5067708;28;20604;-73
2023/01/31 09:01:48;;;;;;;11.43;3.80;;;;;;;;;;5057551;28;20173;-73
2023/01/31 09:04:13;;;;;;;12.30;4.67;;;;;;;;;;5064215;28;20204;-73
2023/01/31 09:06:38;;;;;;;14.23;4.47;;;;;;;;;;5062166;28;20228;-73
2023/01/31 09:09:04;;;;;;;17.60;4.40;;;;;;;;;;5065859;28;20173;-73
2023/01/31 09:11:29;;;;;;;18.13;5.27;;;;;;;;;;5067315;28;20181;-73
2023/01/31 09:13:54;;;;;;;19.43;5.97;;;;;;;;;;5070580;28;20187;-74
2023/01/31 09:16:20;;;;;;;19.17;4.57;;;;;;;;;;5064741;28;20215;-73
2023/01/31 09:18:45;;;;;;;17.27;5.70;;;;;;;;;;5070918;28;20165;-73
2023/01/31 09:21:10;;;;;;;18.53;4.93;;;;;;;;;;5061625;28;20326;-73
2023/01/31 09:23:36;;;;;;;18.07;4.90;;;;;;;;;;5066532;28;20170;-73
2023/01/31 09:26:01;;;;;;;20.83;6.13;;;;;;;;;;5057280;28;20215;-73
2023/01/31 09:28:26;;;;;;;14.53;4.90;;;;;;;;;;5054980;28;20307;-73
2023/01/31 09:30:54;;;;;;;17.30;5.17;;;;;;;;;;5052854;28;20722;-73
2023/01/31 09:33:20;;;;;;;20.23;6.93;;;;;;;;;;5065674;28;20189;-73
2023/01/31 09:35:56;;;;;;;11.50;4.70;;;;;;;;;;5070252;28;20258;-73
2023/01/31 09:38:22;;;;;;;17.67;5.67;;;;;;;;;;5072764;28;20179;-73
2023/01/31 09:40:47;;;;;;;14.33;5.07;;;;;;;;;;5072585;28;20234;-73
2023/01/31 09:43:12;;;;;;;13.37;5.03;;;;;;;;;;5074569;28;20177;-73
2023/01/31 09:45:41;;;;;;;21.90;5.37;;;;;;;;;;5072545;28;20181;-73
2023/01/31 09:48:08;;;;;;;13.87;5.07;;;;;;;;;;5068601;28;20254;-73
2023/01/31 09:50:37;;;;;;;12.93;4.77;;;;;;;;;;5068426;28;20185;-73
2023/01/31 09:53:02;;;;;;;16.03;5.50;;;;;;;;;;5056453;28;20188;-73
2023/01/31 09:55:27;;;;;;;14.20;5.27;;;;;;;;;;5072870;28;22124;-73
2023/01/31 09:58:03;;;;;;;13.93;5.23;;;;;;;;;;5056197;28;20682;-73
2023/01/31 10:00:28;;;;;;;16.17;4.17;;;;;;;;;;5069090;28;20259;-73
2023/01/31 10:02:53;;;;;;;22.63;6.27;;;;;;;;;;5067563;28;20179;-73
2023/01/31 10:05:25;;;;;;;17.10;4.13;;;;;;;;;;5071031;28;20181;-73
2023/01/31 10:07:59;;;;;;;12.63;4.23;;;;;;;;;;5071479;28;20244;-73
2023/01/31 10:10:46;;;;;;;20.87;5.07;;;;;;;;;;5056214;28;20539;-73
2023/01/31 10:13:17;;;;;;;15.97;4.50;;;;;;;;;;5069391;28;20662;-73
2023/01/31 10:15:47;;;;;;;12.20;4.13;;;;;;;;;;5066714;28;20197;-73
2023/01/31 10:18:16;;;;;;;15.27;4.10;;;;;;;;;;5065428;28;20189;-73
2023/01/31 10:20:44;;;;;;;11.73;4.60;;;;;;;;;;5050429;28;20177;-73
2023/01/31 10:23:16;;;;;;;15.13;4.30;;;;;;;;;;5062443;28;20176;-73
2023/01/31 10:25:47;;;;;;;19.53;6.60;;;;;;;;;;5067066;28;20568;-74
2023/01/31 10:28:31;;;;;;;12.13;4.00;;;;;;;;;;5067276;28;20196;-73
2023/01/31 10:31:02;;;;;;;15.40;3.87;;;;;;;;;;5062955;28;20173;-73
2023/01/31 10:33:33;;;;;;;12.33;3.77;;;;;;;;;;5070246;28;20179;-73
2023/01/31 10:36:00;;;;;;;8.13;3.13;;;;;;;;;;5063720;28;20208;-73
2023/01/31 10:38:37;;;;;;;10.03;4.17;;;;;;;;;;5068240;28;20189;-73
2023/01/31 10:41:14;;;;;;;12.93;3.70;;;;;;;;;;5048492;28;20169;-72
2023/01/31 10:43:46;;;;;;;19.70;4.17;;;;;;;;;;5071719;28;20223;-73
2023/01/31 10:46:11;;;;;;;15.37;3.63;;;;;;;;;;5069336;28;20180;-73
2023/01/31 10:48:37;;;;;;;10.27;3.33;;;;;;;;;;5071426;28;20180;-73
2023/01/31 10:51:02;;;;;;;11.43;4.73;;;;;;;;;;5069310;28;20188;-73
2023/01/31 10:53:47;;;;;;;12.33;3.63;;;;;;;;;;5070938;28;20562;-73
2023/01/31 10:56:22;;;;;;;11.77;3.10;;;;;;;;;;5068089;28;20348;-73
2023/01/31 10:58:48;;;;;;;12.53;3.40;;;;;;;;;;5064633;28;20199;-73
2023/01/31 11:01:14;;;;;;;11.67;2.90;;;;;;;;;;5071488;28;20177;-73
2023/01/31 11:03:44;;;;;;;15.10;3.60;;;;;;;;;;5067739;28;20230;-73
2023/01/31 11:08:46;;;;;;;12.13;3.67;;;;;;;;;;5094269;28;20600;-72
2023/01/31 11:11:13;;;;;;;14.87;3.80;;;;;;;;;;5094752;28;20207;-72
2023/01/31 11:13:38;;;;;;;22.43;3.70;;;;;;;;;;5095093;28;20180;-72
2023/01/31 11:16:06;;;;;;;12.93;3.30;;;;;;;;;;5077559;28;20227;-72
2023/01/31 11:18:34;;;;;;;7.97;3.57;;;;;;;;;;5092068;28;20270;-72
2023/01/31 11:21:00;;;;;;;14.50;3.27;;;;;;;;;;5070727;28;20216;-73
2023/01/31 11:23:28;;;;;;;17.40;3.20;;;;;;;;;;5070264;28;20176;-73
2023/01/31 11:25:53;;;;;;;20.37;4.27;;;;;;;;;;5075872;28;20187;-72
2023/01/31 11:28:38;;;;;;;13.23;3.63;;;;;;;;;;5095296;28;20196;-72
2023/01/31 11:31:06;;;;;;;16.83;3.90;;;;;;;;;;5091827;28;20195;-73
2023/01/31 11:33:46;;;;;;;17.77;3.33;;;;;;;;;;5098793;28;20191;-72
2023/01/31 11:36:15;;;;;;;9.43;3.30;;;;;;;;;;5086085;28;20212;-72
2023/01/31 11:38:40;;;;;;;9.83;3.47;;;;;;;;;;5092852;28;20213;-72
2023/01/31 11:41:24;;;;;;;13.33;3.43;;;;;;;;;;5097646;28;20255;-72
2023/01/31 11:43:50;;;;;;;12.43;3.20;;;;;;;;;;5094416;28;20180;-73
2023/01/31 11:46:15;;;;;;;15.80;3.30;;;;;;;;;;5102583;28;20596;-72
2023/01/31 11:48:41;;;;;;;14.37;3.37;;;;;;;;;;5107154;28;20232;-73
2023/01/31 11:51:07;;;;;;;12.93;3.53;;;;;;;;;;5090301;28;20184;-73
2023/01/31 11:53:52;;;;;;;13.67;4.03;;;;;;;;;;5074331;28;20209;-72
2023/01/31 11:56:23;;;;;;;12.77;3.30;;;;;;;;;;5096958;28;20731;-72
2023/01/31 11:58:51;;;;;;;12.30;3.07;;;;;;;;;;5104872;28;20549;-72
2023/01/31 12:01:17;;;;;;;15.73;2.93;;;;;;;;;;5095680;28;20239;-73
2023/01/31 12:04:02;;;;;;;14.27;3.37;;;;;;;;;;5096869;28;20203;-72
2023/01/31 12:06:38;;;;;;;14.73;3.67;;;;;;;;;;5085171;28;20187;-74
2023/01/31 12:09:04;;;;;;;14.67;3.13;;;;;;;;;;5094292;28;20188;-73
2023/01/31 12:11:31;;;;;;;12.13;3.30;;;;;;;;;;5104546;28;20187;-72
2023/01/31 12:14:01;;;;;;;11.67;3.30;;;;;;;;;;5099743;28;20390;-73
2023/01/31 12:16:27;;;;;;;10.30;2.73;;;;;;;;;;5093398;28;20204;-73
2023/01/31 12:19:05;;;;;;;14.00;3.00;;;;;;;;;;5083722;28;20168;-74
2023/01/31 12:21:39;;;;;;;11.17;2.90;;;;;;;;;;5099949;28;20186;-73
2023/01/31 12:24:13;;;;;;;9.43;3.07;;;;;;;;;;5105355;28;20241;-73
2023/01/31 12:26:51;;;;;;;12.20;3.10;;;;;;;;;;5100506;28;20533;-73
2023/01/31 12:29:24;;;;;;;8.87;2.57;;;;;;;;;;5090453;28;20191;-73
2023/01/31 12:32:07;;;;;;;13.57;3.40;;;;;;;;;;5099225;28;20180;-72
2023/01/31 12:34:45;;;;;;;11.50;2.90;;;;;;;;;;5105794;28;20188;-73
2023/01/31 12:37:13;;;;;;;16.17;3.57;;;;;;;;;;5095995;28;20299;-73
2023/01/31 12:39:53;;;;;;;12.83;3.47;;;;;;;;;;5092101;28;20651;-73
2023/01/31 12:42:31;;;;;;;18.57;4.90;;;;;;;;;;5102355;28;20179;-73
2023/01/31 12:45:15;;;;;;;8.33;3.20;;;;;;;;;;5100078;28;20172;-73
2023/01/31 12:48:00;;;;;;;13.50;3.10;;;;;;;;;;5093276;28;20203;-75
2023/01/31 12:50:34;;;;;;;13.63;2.73;;;;;;;;;;5099345;28;20192;-73
2023/01/31 12:53:09;;;;;;;11.27;3.00;;;;;;;;;;5070686;28;20191;-73
2023/01/31 12:55:37;;;;;;;10.40;3.30;;;;;;;;;;5093939;28;20666;-73
2023/01/31 12:58:18;;;;;;;15.00;3.03;;;;;;;;;;5105121;28;20248;-73
2023/01/31 13:00:52;;;;;;;13.37;4.20;;;;;;;;;;5091203;28;20239;-73
2023/01/31 13:03:20;;;;;;;13.73;3.53;;;;;;;;;;5097963;28;20251;-73
2023/01/31 13:06:05;;;;;;;7.93;3.23;;;;;;;;;;5101462;28;20233;-72
2023/01/31 13:08:31;;;;;;;7.43;2.50;;;;;;;;;;5109649;28;20215;-73
2023/01/31 13:11:00;;;;;;;12.30;2.93;;;;;;;;;;5092852;28;20309;-73
2023/01/31 13:13:31;;;;;;;9.60;2.73;;;;;;;;;;5106567;28;20183;-72
2023/01/31 13:15:56;;;;;;;10.17;4.70;;;;;;;;;;5096528;28;20212;-72
2023/01/31 13:18:23;;;;;;;15.87;3.20;;;;;;;;;;5107531;28;20660;-72
2023/01/31 13:20:56;;;;;;;9.57;2.80;;;;;;;;;;5091855;28;20179;-72
2023/01/31 13:23:48;;;;;;;10.53;2.77;;;;;;;;;;5100449;28;20187;-72
2023/01/31 13:26:22;;;;;;;10.17;2.77;;;;;;;;;;5084811;28;20207;-72
2023/01/31 13:28:47;;;;;;;11.80;3.07;;;;;;;;;;5082928;28;20198;-73
2023/01/31 13:31:26;;;;;;;8.23;2.80;;;;;;;;;;5093905;28;20188;-72
2023/01/31 13:34:05;;;;;;;12.43;3.00;;;;;;;;;;5100022;28;20184;-73
2023/01/31 13:36:42;;;;;;;9.67;2.80;;;;;;;;;;5099143;28;20218;-72
2023/01/31 13:39:13;;;;;;;8.67;2.67;;;;;;;;;;5096599;28;20184;-73
2023/01/31 13:41:39;;;;;;;13.37;2.93;;;;;;;;;;5097830;28;20654;-72
2023/01/31 13:44:05;;;;;;;12.50;3.67;;;;;;;;;;5097500;28;20259;-72
2023/01/31 13:46:35;;;;;;;10.53;2.93;;;;;;;;;;5084724;28;20213;-72
2023/01/31 13:49:04;;;;;;;13.27;4.07;;;;;;;;;;5080322;28;20252;-73
2023/01/31 13:51:34;;;;;;;14.30;3.07;;;;;;;;;;5103284;28;20194;-72
2023/01/31 13:54:03;;;;;;;14.20;3.13;;;;;;;;;;5066978;28;20184;-72
2023/01/31 13:56:30;;;;;;;10.87;3.40;;;;;;;;;;5097414;28;20208;-72
2023/01/31 13:58:56;;;;;;;17.53;3.00;;;;;;;;;;5083667;28;20175;-72
2023/01/31 14:01:23;;;;;;;7.03;2.87;;;;;;;;;;5104063;28;20176;-72
2023/01/31 14:04:07;;;;;;;7.57;3.17;;;;;;;;;;5095004;28;20180;-72
2023/01/31 14:06:50;;;;;;;7.80;2.80;;;;;;;;;;5092384;28;20557;-72
2023/01/31 14:09:29;;;;;;;10.70;2.47;;;;;;;;;;5098995;28;20450;-73
2023/01/31 14:12:15;;;;;;;11.17;2.60;;;;;;;;;;5084402;28;20184;-72
2023/01/31 14:14:43;;;;;;;7.67;2.53;;;;;;;;;;5059338;28;20623;-72
2023/01/31 14:17:09;;;;;;;8.43;2.60;;;;;;;;;;5092472;28;20267;-72
2023/01/31 14:19:43;;;;;;;9.60;3.77;;;;;;;;;;5095629;28;20207;-72
2023/01/31 14:22:18;;;;;;;6.43;1.97;;;;;;;;;;5096402;28;20178;-72
2023/01/31 14:24:52;;;;;;;6.03;2.37;;;;;;;;;;5085187;28;20251;-72
2023/01/31 14:27:18;;;;;;;9.93;2.57;;;;;;;;;;5085639;28;20196;-73
2023/01/31 14:29:45;;;;;;;8.10;2.27;;;;;;;;;;5116207;28;20172;-72
2023/01/31 14:32:14;;;;;;;11.23;4.43;;;;;;;;;;5105589;28;20184;-71
2023/01/31 14:34:46;;;;;;;7.03;2.17;;;;;;;;;;5096463;28;20307;-72
2023/01/31 14:37:40;;;;;;;7.20;2.47;;;;;;;;;;5089733;28;20212;-71
2023/01/31 14:40:23;;;;;;;8.30;2.30;;;;;;;;;;5025065;28;20198;-72
2023/01/31 14:42:59;;;;;;;8.57;2.97;;;;;;;;;;5099237;28;20172;-72
2023/01/31 14:45:40;;;;;;;7.83;3.00;;;;;;;;;;5106971;28;20202;-73